Emerado, North Dakota
Current Conditions -  °F | °C
As of 5:58 AM on Monday 24 Nov 2014 (Local Time) from KRDR Reporting Station
Light Snow Light Snow  
Wind Chill: -12°   Ceiling: 1700
Heat Index:   Visibility: 10mi
Dew Point:   Wind: 22mph
Humidity: 82%   Direction: 340°NNW
Pressure: 29.67"   Gusts: 29mph
Location:  47.92°N, 97.37°W
Report Text: KRDR 241158Z 34019G25KT 290V350 10SM -SN FEW007 OVC017 M13/M16 A2967 RMK AO2A PK WND 35029/20 DZB1125 OVC V BKN CIG 010 RWY17 SLP071 P0000 60000 T11341159 11100 21134 52012
Loading
Personal Weather Stations






























Interactive Weather Map New forecast layout! Learn more

10-Day Weather Forecast

Advertisements
Track Severe Weather on mobile